Time;durP1;ratioP1;P1;durP2;ratioP2;P2;SDS_P1;SDS_P2;PMS_P1;PMS_P2;Temp;Humidity;BMP_temperature;BMP_pressure;BME280_temperature;BME280_humidity;BME280_pressure;Samples;Min_cycle;Max_cycle;Signal;HPM_P1;HPM_P2
2023/02/14 00:00:07;;;;;;;28.15;16.33;;;8.50;96.70;;;;;;5007104;28;20041;-68
2023/02/14 00:02:32;;;;;;;29.50;15.98;;;8.50;96.70;;;;;;5023259;28;20079;-69
2023/02/14 00:04:58;;;;;;;27.75;15.07;;;8.40;96.60;;;;;;5019525;28;20108;-68
2023/02/14 00:07:23;;;;;;;27.58;15.73;;;8.40;96.50;;;;;;5022535;28;20038;-69
2023/02/14 00:09:49;;;;;;;24.33;13.13;;;8.40;96.50;;;;;;5017607;28;20026;-69
2023/02/14 00:12:15;;;;;;;27.35;14.73;;;8.40;96.50;;;;;;5020665;28;20041;-69
2023/02/14 00:17:25;;;;;;;24.55;14.88;;;8.30;96.50;;;;;;5030479;28;20128;-67
2023/02/14 00:19:51;;;;;;;28.27;15.68;;;8.20;96.50;;;;;;5026956;28;20529;-67
2023/02/14 00:22:16;;;;;;;26.85;15.65;;;8.20;96.60;;;;;;5030882;28;20377;-68
2023/02/14 00:24:42;;;;;;;26.77;15.15;;;8.10;96.60;;;;;;5024466;28;20022;-68
2023/02/14 00:27:08;;;;;;;27.27;14.93;;;8.20;96.70;;;;;;5012423;28;20045;-67
2023/02/14 00:29:34;;;;;;;25.00;15.52;;;8.20;96.70;;;;;;5035925;28;20025;-68
2023/02/14 00:32:00;;;;;;;29.65;16.63;;;8.20;96.80;;;;;;5025889;28;20037;-67
2023/02/14 00:34:26;;;;;;;29.20;15.63;;;8.20;96.80;;;;;;5020722;28;20033;-68
2023/02/14 00:36:52;;;;;;;27.02;15.32;;;8.30;96.80;;;;;;5026854;28;20025;-67
2023/02/14 00:39:18;;;;;;;27.73;16.13;;;8.30;96.80;;;;;;5028349;28;20038;-67
2023/02/14 00:41:44;;;;;;;27.30;14.93;;;8.30;96.80;;;;;;5010799;28;20025;-68
2023/02/14 00:44:12;;;;;;;28.88;15.68;;;8.30;96.80;;;;;;5027237;28;20108;-68
2023/02/14 00:46:38;;;;;;;26.67;15.30;;;8.40;96.80;;;;;;5030367;28;20428;-68
2023/02/14 00:49:03;;;;;;;26.85;15.55;;;8.40;96.60;;;;;;5021243;28;20022;-68
2023/02/14 00:51:30;;;;;;;27.55;16.17;;;8.30;96.60;;;;;;5019104;28;20056;-68
2023/02/14 00:53:55;;;;;;;25.92;13.77;;;8.30;96.60;;;;;;5011159;28;20030;-68
2023/02/14 00:56:21;;;;;;;24.83;15.52;;;8.20;96.70;;;;;;5024851;28;20030;-68
2023/02/14 00:58:47;;;;;;;30.73;16.80;;;8.30;96.70;;;;;;5011432;28;20121;-67
2023/02/14 01:01:15;;;;;;;30.83;16.40;;;8.30;96.80;;;;;;5025548;28;20600;-65
2023/02/14 01:03:40;;;;;;;30.48;17.27;;;8.30;96.80;;;;;;4995782;28;20100;-68
2023/02/14 01:06:07;;;;;;;24.75;14.57;;;8.30;96.80;;;;;;5019580;28;20461;-68
2023/02/14 01:08:33;;;;;;;29.40;16.35;;;8.30;96.80;;;;;;5034649;28;20048;-68
2023/02/14 01:11:09;;;;;;;24.05;14.00;;;8.40;96.80;;;;;;5030162;28;20037;-69
2023/02/14 01:13:35;;;;;;;27.40;15.50;;;8.40;96.80;;;;;;5021050;28;20094;-68
2023/02/14 01:16:09;;;;;;;28.48;16.75;;;8.40;96.90;;;;;;5015117;28;20109;-69
2023/02/14 01:18:35;;;;;;;27.85;16.45;;;8.40;96.80;;;;;;5029668;28;20092;-68
2023/02/14 01:21:17;;;;;;;26.13;15.63;;;8.50;96.70;;;;;;5026881;28;20105;-68
2023/02/14 01:23:43;;;;;;;26.85;14.13;;;8.50;96.70;;;;;;5054439;28;20068;-69
2023/02/14 01:26:10;;;;;;;26.13;14.80;;;8.50;96.60;;;;;;5039608;28;20060;-68
2023/02/14 01:28:35;;;;;;;26.88;16.33;;;8.40;96.50;;;;;;5039335;28;20384;-68
2023/02/14 01:31:11;;;;;;;26.30;15.88;;;8.40;96.50;;;;;;5034536;28;20057;-68
2023/02/14 01:33:39;;;;;;;25.77;15.25;;;8.40;96.50;;;;;;5015769;28;20433;-69
2023/02/14 01:36:26;;;;;;;28.55;16.38;;;8.40;96.50;;;;;;4996874;28;20022;-69
2023/02/14 01:38:55;;;;;;;28.17;16.95;;;8.40;96.50;;;;;;5014466;28;20400;-69
2023/02/14 01:41:22;;;;;;;27.67;15.75;;;8.40;96.50;;;;;;5027036;28;20033;-69
2023/02/14 01:43:52;;;;;;;28.52;16.08;;;8.40;96.70;;;;;;5034327;28;20049;-69
2023/02/14 01:46:18;;;;;;;27.33;15.23;;;8.40;96.50;;;;;;5039774;28;20468;-69
2023/02/14 01:48:45;;;;;;;28.90;15.35;;;8.40;96.50;;;;;;5036172;28;20028;-69
2023/02/14 01:51:11;;;;;;;27.63;16.20;;;8.40;96.40;;;;;;5025989;28;20044;-69
2023/02/14 01:53:37;;;;;;;29.38;15.55;;;8.30;96.40;;;;;;5034111;28;20029;-69
2023/02/14 01:56:08;;;;;;;28.35;15.70;;;8.40;96.50;;;;;;5029230;28;20032;-69
2023/02/14 01:58:39;;;;;;;26.00;15.38;;;8.40;96.40;;;;;;5035009;28;20033;-69
2023/02/14 02:01:27;;;;;;;24.30;14.48;;;8.40;96.40;;;;;;5032462;28;20464;-69
2023/02/14 02:03:56;;;;;;;27.40;14.02;;;8.40;96.40;;;;;;5013938;28;20062;-69
2023/02/14 02:06:25;;;;;;;26.88;14.98;;;8.40;96.40;;;;;;5013988;28;20030;-69
2023/02/14 02:09:18;;;;;;;24.88;14.90;;;8.30;96.40;;;;;;5014087;28;20068;-69
2023/02/14 02:11:44;;;;;;;25.88;15.65;;;8.30;96.40;;;;;;5030755;28;20056;-69
2023/02/14 02:14:19;;;;;;;25.48;15.48;;;8.30;96.40;;;;;;5035821;28;20397;-69
2023/02/14 02:16:45;;;;;;;;;;;8.30;96.40;;;;;;5043288;28;20033;-69
2023/02/14 02:19:49;;;;;;;26.27;15.55;;;8.40;96.50;;;;;;5053923;28;19905;-69
2023/02/14 02:22:42;;;;;;;28.10;15.30;;;8.30;96.40;;;;;;5023861;28;20034;-69
2023/02/14 02:25:36;;;;;;;26.65;15.15;;;8.40;96.50;;;;;;5028722;28;20037;-69
2023/02/14 02:28:02;;;;;;;25.17;15.48;;;8.40;96.50;;;;;;5033681;28;20069;-69
2023/02/14 02:30:40;;;;;;;25.85;14.85;;;8.40;96.50;;;;;;5024624;28;20139;-68
2023/02/14 02:33:24;;;;;;;26.02;15.77;;;8.40;96.40;;;;;;5025114;28;20026;-69
2023/02/14 02:35:50;;;;;;;27.92;15.60;;;8.40;96.40;;;;;;5022892;28;20393;-69
2023/02/14 02:38:35;;;;;;;25.05;15.07;;;8.40;96.40;;;;;;5011500;28;20040;-69
2023/02/14 02:41:47;;;;;;;24.67;14.77;;;8.40;96.40;;;;;;5017106;28;20053;-69
2023/02/14 02:44:21;;;;;;;25.95;15.10;;;8.50;96.40;;;;;;4946668;28;20043;-69
2023/02/14 02:47:13;;;;;;;26.50;14.02;;;8.50;96.40;;;;;;4957363;28;20450;-69
2023/02/14 02:53:08;;;;;;;25.92;15.52;;;8.50;96.40;;;;;;5013066;28;20405;-68
2023/02/14 02:58:41;;;;;;;28.08;15.55;;;8.50;96.60;;;;;;5022036;28;21763;-69
2023/02/14 03:01:20;;;;;;;26.05;14.55;;;8.40;96.40;;;;;;5032062;28;20030;-70
2023/02/14 03:06:35;;;;;;;26.95;16.20;;;8.40;96.30;;;;;;5015780;28;20804;-69
2023/02/14 03:09:33;;;;;;;25.77;15.50;;;8.40;96.30;;;;;;5033049;28;20018;-69
2023/02/14 03:12:30;;;;;;;24.65;14.75;;;8.40;96.30;;;;;;5021394;28;20084;-69
2023/02/14 03:15:07;;;;;;;26.15;16.05;;;8.40;96.40;;;;;;5029347;28;20381;-69
2023/02/14 03:17:44;;;;;;;27.80;15.18;;;8.40;96.40;;;;;;5023609;28;20025;-69
2023/02/14 03:20:22;;;;;;;28.63;16.23;;;8.40;96.40;;;;;;5031517;28;20034;-69
2023/02/14 03:23:12;;;;;;;25.23;14.55;;;8.40;96.40;;;;;;5026043;28;20025;-69
2023/02/14 03:25:45;;;;;;;27.20;15.27;;;8.40;96.30;;;;;;5025921;28;20464;-69
2023/02/14 03:28:19;;;;;;;29.30;15.70;;;8.40;96.40;;;;;;5036400;28;20063;-69
2023/02/14 03:31:24;;;;;;;25.55;14.60;;;8.40;96.30;;;;;;5011167;28;20429;-69
2023/02/14 03:33:56;;;;;;;25.67;15.27;;;8.40;96.40;;;;;;4989086;28;20040;-69
2023/02/14 03:36:33;;;;;;;26.27;15.05;;;8.40;96.40;;;;;;5030744;28;20449;-69
2023/02/14 03:39:19;;;;;;;27.92;14.73;;;8.40;96.40;;;;;;5032486;28;20044;-69
2023/02/14 03:41:52;;;;;;;22.73;13.45;;;8.40;96.40;;;;;;5028220;28;20468;-68
2023/02/14 03:44:21;;;;;;;26.17;15.20;;;8.40;96.40;;;;;;5029598;28;20499;-69
2023/02/14 03:46:50;;;;;;;28.67;16.65;;;8.40;96.40;;;;;;5028682;28;20359;-67
2023/02/14 03:49:20;;;;;;;28.25;14.30;;;8.40;96.40;;;;;;5012800;28;20025;-67
2023/02/14 03:51:49;;;;;;;22.17;13.95;;;8.40;96.60;;;;;;5021979;28;20492;-67
2023/02/14 03:54:16;;;;;;;25.63;15.30;;;8.40;96.40;;;;;;5025919;28;20424;-67
2023/02/14 03:56:45;;;;;;;29.88;16.25;;;8.40;96.40;;;;;;5029615;28;20508;-67
2023/02/14 03:59:16;;;;;;;25.40;15.05;;;8.40;96.40;;;;;;5024960;28;20485;-67
2023/02/14 04:01:56;;;;;;;26.73;15.70;;;8.40;96.40;;;;;;5028902;28;20040;-67
2023/02/14 04:04:26;;;;;;;24.02;15.07;;;8.40;96.30;;;;;;5008874;28;20034;-67
2023/02/14 04:06:52;;;;;;;24.98;14.85;;;8.40;96.40;;;;;;5026321;28;20052;-67
2023/02/14 04:09:18;;;;;;;28.50;16.23;;;8.40;96.50;;;;;;5030899;28;20088;-67
2023/02/14 04:11:45;;;;;;;31.33;16.15;;;8.40;96.40;;;;;;5034205;28;20037;-67
2023/02/14 04:14:11;;;;;;;28.25;15.85;;;8.40;96.30;;;;;;5032375;28;20431;-67
2023/02/14 04:19:22;;;;;;;27.10;16.13;;;8.40;96.40;;;;;;5017598;28;20044;-68
2023/02/14 04:21:49;;;;;;;24.98;14.32;;;8.40;96.30;;;;;;5025025;28;20502;-67
2023/02/14 04:24:15;;;;;;;25.48;14.75;;;8.40;96.40;;;;;;5025749;28;20432;-68
2023/02/14 04:26:52;;;;;;;28.15;15.05;;;8.40;96.50;;;;;;5030890;28;20029;-68
2023/02/14 04:29:21;;;;;;;28.90;15.35;;;8.40;96.40;;;;;;5028979;28;20037;-67
2023/02/14 04:31:47;;;;;;;32.38;15.93;;;8.30;96.30;;;;;;5023901;28;20045;-68
2023/02/14 04:34:14;;;;;;;26.83;14.93;;;8.30;96.30;;;;;;5011913;28;20026;-68
2023/02/14 04:36:39;;;;;;;23.13;13.90;;;8.30;96.30;;;;;;5013429;28;20325;-67
2023/02/14 04:39:05;;;;;;;27.20;15.82;;;8.30;96.30;;;;;;5028942;28;20022;-67
2023/02/14 04:41:31;;;;;;;28.67;15.93;;;8.30;96.30;;;;;;5009053;28;20061;-68
2023/02/14 04:43:57;;;;;;;30.88;15.50;;;8.30;96.30;;;;;;5029142;28;20025;-68
2023/02/14 04:46:22;;;;;;;27.45;15.38;;;8.30;96.30;;;;;;5022351;28;20026;-68
2023/02/14 04:48:48;;;;;;;29.52;15.65;;;8.20;96.30;;;;;;5014378;28;20450;-68
2023/02/14 04:51:13;;;;;;;29.05;17.33;;;8.20;96.30;;;;;;5008762;28;20065;-68
2023/02/14 04:53:39;;;;;;;29.00;15.77;;;8.20;96.30;;;;;;5015271;28;20038;-68
2023/02/14 04:56:08;;;;;;;32.55;15.23;;;8.20;96.30;;;;;;5001782;28;20469;-66
2023/02/14 04:58:35;;;;;;;27.50;16.38;;;8.20;96.30;;;;;;5024625;28;20033;-67
2023/02/14 05:01:01;;;;;;;34.30;17.75;;;8.20;96.40;;;;;;5025919;28;20173;-68
2023/02/14 05:03:26;;;;;;;28.30;15.88;;;8.20;96.40;;;;;;4993141;28;20113;-67
2023/02/14 05:05:52;;;;;;;28.67;15.98;;;8.20;96.40;;;;;;5011610;28;20037;-67
2023/02/14 05:08:17;;;;;;;29.98;16.17;;;8.20;96.40;;;;;;5017615;28;20028;-67
2023/02/14 05:10:43;;;;;;;27.58;15.80;;;8.20;96.40;;;;;;5022073;28;20041;-69
2023/02/14 05:13:09;;;;;;;27.00;15.32;;;8.30;96.40;;;;;;5029440;28;20032;-67
2023/02/14 05:15:34;;;;;;;29.77;16.52;;;8.30;96.60;;;;;;5011446;28;20109;-68
2023/02/14 05:18:01;;;;;;;29.95;16.58;;;8.20;96.30;;;;;;5039039;28;20381;-67
2023/02/14 05:20:28;;;;;;;31.55;17.45;;;8.20;96.30;;;;;;5028139;28;20053;-67
2023/02/14 05:22:54;;;;;;;33.58;16.40;;;8.20;96.30;;;;;;5028491;28;20129;-68
2023/02/14 05:25:19;;;;;;;30.13;16.23;;;8.20;96.40;;;;;;5014844;28;20060;-68
2023/02/14 05:27:45;;;;;;;27.38;15.40;;;8.20;96.40;;;;;;5020856;28;20087;-67
2023/02/14 05:30:11;;;;;;;27.25;15.45;;;8.20;96.40;;;;;;5005589;28;20029;-67
2023/02/14 05:32:37;;;;;;;26.80;15.32;;;8.20;96.40;;;;;;5038789;28;20037;-67
2023/02/14 05:35:03;;;;;;;26.20;14.75;;;8.20;96.40;;;;;;5034219;28;20061;-66
2023/02/14 05:37:29;;;;;;;22.48;14.20;;;8.20;96.40;;;;;;5039889;28;20025;-67
2023/02/14 05:39:55;;;;;;;25.60;14.68;;;8.10;96.30;;;;;;5031607;28;20116;-67
2023/02/14 05:42:20;;;;;;;26.88;15.38;;;8.20;96.30;;;;;;5024254;28;20030;-68
2023/02/14 05:44:47;;;;;;;26.10;15.77;;;8.10;96.40;;;;;;5016795;28;20022;-67
2023/02/14 05:47:13;;;;;;;32.28;16.83;;;8.10;96.40;;;;;;5015954;28;20085;-67
2023/02/14 05:49:38;;;;;;;26.55;15.10;;;8.20;96.40;;;;;;5029109;28;20025;-67
2023/02/14 05:52:04;;;;;;;27.80;16.33;;;8.10;96.40;;;;;;5022140;28;20084;-67
2023/02/14 05:54:30;;;;;;;26.45;16.27;;;8.10;96.40;;;;;;5014185;28;20022;-67
2023/02/14 05:56:56;;;;;;;28.55;16.80;;;8.10;96.40;;;;;;5004587;28;20037;-67
2023/02/14 05:59:22;;;;;;;26.52;16.20;;;8.10;96.30;;;;;;5048195;28;20125;-67
2023/02/14 06:01:47;;;;;;;28.05;16.45;;;8.00;96.30;;;;;;5019949;28;20129;-67
2023/02/14 06:04:13;;;;;;;29.52;16.40;;;8.00;96.40;;;;;;5033254;28;20112;-67
2023/02/14 06:06:39;;;;;;;30.00;16.30;;;8.10;96.40;;;;;;5033182;28;20114;-67
2023/02/14 06:09:04;;;;;;;30.23;16.70;;;8.00;96.40;;;;;;5033307;28;20017;-66
2023/02/14 06:11:30;;;;;;;24.17;15.23;;;8.10;96.50;;;;;;5030642;28;20095;-67
2023/02/14 06:13:58;;;;;;;28.48;15.77;;;8.10;96.50;;;;;;5032836;28;20029;-67
2023/02/14 06:16:24;;;;;;;28.50;16.38;;;8.10;96.50;;;;;;5032310;28;20026;-67
2023/02/14 06:18:50;;;;;;;26.77;15.73;;;8.10;96.50;;;;;;5019787;28;20026;-66
2023/02/14 06:21:15;;;;;;;30.85;16.75;;;8.10;96.50;;;;;;5015081;28;20036;-64
2023/02/14 06:23:41;;;;;;;27.52;17.00;;;8.10;96.50;;;;;;5020178;28;20169;-67
2023/02/14 06:26:06;;;;;;;28.15;16.35;;;8.20;96.50;;;;;;5015665;28;20532;-67
2023/02/14 06:28:32;;;;;;;28.25;16.15;;;8.20;96.50;;;;;;5026398;28;20033;-67
2023/02/14 06:30:57;;;;;;;30.17;17.60;;;8.20;96.50;;;;;;5027982;28;20072;-67
2023/02/14 06:33:23;;;;;;;26.40;16.52;;;8.20;96.50;;;;;;5019158;28;20382;-67
2023/02/14 06:35:49;;;;;;;28.15;17.05;;;8.30;96.80;;;;;;5015903;28;20049;-67
2023/02/14 06:38:14;;;;;;;27.70;15.63;;;8.30;96.50;;;;;;5024916;28;20024;-67
2023/02/14 06:40:40;;;;;;;26.00;15.75;;;8.30;96.50;;;;;;5031403;28;20033;-67
2023/02/14 06:43:05;;;;;;;29.77;15.80;;;8.20;96.40;;;;;;5023746;28;20026;-67
2023/02/14 06:45:31;;;;;;;26.08;15.60;;;8.30;96.40;;;;;;5013188;28;20038;-67
2023/02/14 06:47:58;;;;;;;25.70;15.00;;;8.20;96.40;;;;;;5020787;28;20084;-67
2023/02/14 06:50:24;;;;;;;24.70;15.38;;;8.20;96.30;;;;;;5025951;28;20112;-67
2023/02/14 06:52:50;;;;;;;27.08;15.93;;;8.20;96.30;;;;;;5029063;28;20104;-67
2023/02/14 06:55:16;;;;;;;28.20;16.50;;;8.20;96.30;;;;;;5019677;28;20029;-67
2023/02/14 06:57:42;;;;;;;26.08;16.27;;;8.20;96.30;;;;;;5016851;28;20437;-67
2023/02/14 07:00:08;;;;;;;27.90;16.92;;;8.20;96.30;;;;;;5030729;28;20056;-67
2023/02/14 07:02:34;;;;;;;26.17;15.43;;;8.20;96.30;;;;;;5019253;28;20033;-68
2023/02/14 07:05:00;;;;;;;29.73;16.77;;;8.20;96.30;;;;;;5012794;28;20025;-67
2023/02/14 07:07:25;;;;;;;30.67;16.55;;;8.20;96.30;;;;;;5001240;28;20030;-68
2023/02/14 07:09:51;;;;;;;32.20;16.92;;;8.20;96.30;;;;;;5021910;28;20022;-68
2023/02/14 07:12:16;;;;;;;28.73;16.48;;;8.20;96.30;;;;;;5012950;28;20060;-67
2023/02/14 07:14:42;;;;;;;26.13;15.48;;;8.30;96.40;;;;;;5012775;28;20084;-67
2023/02/14 07:17:08;;;;;;;29.85;18.13;;;8.30;96.40;;;;;;5021994;28;20030;-66
2023/02/14 07:19:34;;;;;;;27.35;16.30;;;8.30;96.40;;;;;;5022235;28;20108;-66
2023/02/14 07:21:59;;;;;;;31.58;17.85;;;8.30;96.40;;;;;;5020091;28;20021;-66
2023/02/14 07:24:25;;;;;;;29.13;17.95;;;8.40;96.40;;;;;;5018026;28;20022;-66
2023/02/14 07:26:51;;;;;;;34.72;18.95;;;8.40;96.40;;;;;;5025710;28;20033;-66
2023/02/14 07:29:16;;;;;;;27.38;17.33;;;8.40;96.50;;;;;;5026428;28;20074;-66
2023/02/14 07:31:42;;;;;;;29.20;17.77;;;8.40;96.40;;;;;;5033222;28;20041;-66
2023/02/14 07:34:07;;;;;;;29.30;17.13;;;8.40;96.40;;;;;;5031563;28;20047;-66
2023/02/14 07:36:35;;;;;;;29.42;16.83;;;8.40;96.40;;;;;;5026235;28;20420;-67
2023/02/14 07:39:01;;;;;;;28.05;17.08;;;8.40;96.30;;;;;;5019290;28;20124;-67
2023/02/14 07:41:26;;;;;;;33.35;17.73;;;8.40;96.30;;;;;;5025734;28;20497;-67
2023/02/14 07:43:52;;;;;;;35.13;17.48;;;8.40;96.20;;;;;;5027746;28;20044;-67
2023/02/14 07:46:18;;;;;;;30.50;19.05;;;8.50;96.20;;;;;;5039896;28;20523;-67
2023/02/14 07:48:43;;;;;;;26.98;16.55;;;8.40;96.40;;;;;;5022679;28;20113;-67
2023/02/14 07:51:10;;;;;;;29.70;17.38;;;8.40;96.20;;;;;;5021136;28;20045;-67
2023/02/14 07:53:35;;;;;;;29.83;18.35;;;8.50;96.20;;;;;;5030037;28;20029;-67
2023/02/14 07:56:01;;;;;;;30.30;17.98;;;8.50;96.20;;;;;;5022483;28;20814;-69
2023/02/14 07:58:26;;;;;;;28.85;17.55;;;8.50;96.20;;;;;;5025708;28;20034;-69
2023/02/14 08:00:52;;;;;;;28.85;17.45;;;8.50;96.20;;;;;;5000493;28;20426;-69
2023/02/14 08:03:18;;;;;;;28.38;16.60;;;8.50;96.20;;;;;;5012569;28;20025;-69
2023/02/14 08:05:43;;;;;;;28.00;16.67;;;8.50;96.20;;;;;;5010692;28;20029;-69
2023/02/14 08:08:09;;;;;;;28.67;17.77;;;8.50;96.20;;;;;;4994042;28;20038;-69
2023/02/14 08:10:35;;;;;;;29.33;16.55;;;8.60;96.20;;;;;;4994774;28;20041;-69
2023/02/14 08:13:00;;;;;;;28.00;16.35;;;8.60;96.20;;;;;;5001429;28;20018;-70
2023/02/14 08:18:17;;;;;;;35.72;19.15;;;8.60;96.20;;;;;;5009616;28;20042;-69
2023/02/14 08:20:44;;;;;;;30.92;16.75;;;8.60;96.20;;;;;;4998944;28;20579;-68
2023/02/14 08:23:09;;;;;;;29.90;18.20;;;8.60;96.20;;;;;;5005443;28;20038;-69
2023/02/14 08:25:35;;;;;;;30.33;17.63;;;8.60;96.20;;;;;;5003853;28;20108;-68
2023/02/14 08:28:03;;;;;;;33.67;19.20;;;8.60;96.30;;;;;;5011952;28;20120;-69
2023/02/14 08:30:29;;;;;;;30.83;17.70;;;8.60;96.10;;;;;;5002216;28;20061;-69
2023/02/14 08:32:54;;;;;;;30.30;18.77;;;8.60;96.10;;;;;;4992552;28;20034;-69
2023/02/14 08:35:20;;;;;;;31.55;18.45;;;8.60;96.30;;;;;;4998997;28;20036;-69
2023/02/14 08:37:46;;;;;;;33.08;17.73;;;8.60;96.10;;;;;;4999760;28;20030;-68
2023/02/14 08:40:12;;;;;;;32.13;17.40;;;8.60;96.20;;;;;;5003495;28;20122;-68
2023/02/14 08:42:37;;;;;;;30.92;16.95;;;8.60;96.20;;;;;;5003386;28;20062;-69
2023/02/14 08:45:04;;;;;;;28.27;17.55;;;8.60;96.20;;;;;;5003257;28;20030;-69
2023/02/14 08:47:34;;;;;;;34.70;19.27;;;8.70;96.30;;;;;;5005181;28;20030;-69
2023/02/14 08:50:01;;;;;;;31.75;17.33;;;8.60;96.20;;;;;;5000079;28;20379;-69
2023/02/14 08:52:27;;;;;;;27.90;17.20;;;8.70;96.20;;;;;;5011052;28;20177;-67
2023/02/14 08:54:53;;;;;;;32.97;18.55;;;8.70;96.20;;;;;;5017920;28;20122;-67
2023/02/14 08:57:18;;;;;;;33.45;17.60;;;8.70;96.20;;;;;;5002590;28;20040;-67
2023/02/14 08:59:44;;;;;;;28.90;18.08;;;8.70;96.20;;;;;;5019783;28;20045;-69
2023/02/14 09:02:13;;;;;;;29.48;17.65;;;8.70;96.30;;;;;;5029682;28;20041;-68
2023/02/14 09:04:38;;;;;;;26.80;17.10;;;8.70;96.30;;;;;;5024930;28;20036;-69
2023/02/14 09:07:04;;;;;;;28.75;19.08;;;8.70;96.20;;;;;;5026999;28;20376;-68
2023/02/14 09:09:31;;;;;;;30.05;17.65;;;8.70;96.20;;;;;;5030141;28;20030;-69
2023/02/14 09:11:56;;;;;;;32.10;18.98;;;8.70;96.30;;;;;;5012278;28;20038;-69
2023/02/14 09:14:23;;;;;;;32.90;20.00;;;8.70;96.30;;;;;;5015493;28;20040;-68
2023/02/14 09:16:49;;;;;;;37.20;22.95;;;8.80;96.30;;;;;;5021484;28;20095;-68
2023/02/14 09:19:15;;;;;;;38.85;22.60;;;8.80;96.30;;;;;;5026789;28;20053;-68
2023/02/14 09:21:41;;;;;;;34.60;21.38;;;8.80;96.30;;;;;;5035679;28;20032;-69
2023/02/14 09:24:06;;;;;;;33.17;19.92;;;8.80;96.50;;;;;;5034242;28;20450;-69
2023/02/14 09:26:32;;;;;;;33.58;20.13;;;8.80;96.30;;;;;;5016706;28;20393;-68
2023/02/14 09:28:58;;;;;;;31.38;18.83;;;8.90;96.30;;;;;;5024565;28;20478;-68
2023/02/14 09:31:24;;;;;;;36.78;19.52;;;8.90;96.30;;;;;;5024651;28;20072;-68
2023/02/14 09:36:35;;;;;;;33.35;18.50;;;8.90;96.40;;;;;;5034966;28;20112;-68
2023/02/14 09:39:01;;;;;;;29.85;18.23;;;9.00;96.60;;;;;;5026222;28;20437;-68
2023/02/14 09:41:29;;;;;;;32.35;20.63;;;9.00;96.50;;;;;;5014360;28;20024;-68
2023/02/14 09:44:02;;;;;;;28.40;18.85;;;9.10;96.70;;;;;;5015594;28;20068;-68
2023/02/14 09:46:30;;;;;;;29.88;18.23;;;9.10;96.60;;;;;;5032287;28;20397;-68
2023/02/14 09:48:57;;;;;;;29.50;17.92;;;9.20;96.30;;;;;;5029937;28;20030;-68
2023/02/14 09:51:26;;;;;;;29.02;17.33;;;9.20;96.20;;;;;;5014949;28;20488;-69
2023/02/14 09:54:01;;;;;;;31.08;18.70;;;9.20;96.10;;;;;;5017977;28;20555;-69
2023/02/14 09:56:48;;;;;;;27.90;16.70;;;9.20;96.00;;;;;;5016930;28;20053;-69
2023/02/14 09:59:17;;;;;;;26.45;15.50;;;9.20;96.00;;;;;;5019895;28;20099;-69
2023/02/14 10:02:24;;;;;;;27.40;16.98;;;9.20;96.00;;;;;;5002734;28;20375;-69
2023/02/14 10:05:11;;;;;;;26.10;17.13;;;9.20;96.00;;;;;;5012478;28;20061;-69
2023/02/14 10:07:59;;;;;;;26.75;17.27;;;9.30;96.00;;;;;;5013700;28;20384;-69
2023/02/14 10:10:29;;;;;;;29.23;16.30;;;9.30;95.90;;;;;;5015617;28;20026;-69
2023/02/14 10:13:01;;;;;;;28.88;17.77;;;9.30;95.90;;;;;;5014157;28;20052;-69
2023/02/14 10:15:52;;;;;;;25.20;16.33;;;9.40;95.80;;;;;;5013801;28;20041;-69
2023/02/14 10:18:23;;;;;;;28.13;17.50;;;9.40;95.80;;;;;;5007787;28;20512;-69
2023/02/14 10:20:54;;;;;;;27.05;17.40;;;9.40;95.70;;;;;;5013212;28;20026;-69
2023/02/14 10:23:44;;;;;;;29.85;18.52;;;9.40;95.70;;;;;;5013455;28;20022;-69
2023/02/14 10:26:11;;;;;;;27.88;17.17;;;9.50;95.70;;;;;;5018148;28;20045;-69
2023/02/14 10:28:46;;;;;;;27.75;16.20;;;9.50;95.70;;;;;;5024391;28;20029;-69
2023/02/14 10:31:21;;;;;;;25.75;16.90;;;9.50;95.70;;;;;;5016932;28;20037;-69
2023/02/14 10:33:54;;;;;;;26.33;15.88;;;9.50;95.90;;;;;;5023057;28;20033;-69
2023/02/14 10:36:43;;;;;;;29.35;18.10;;;9.60;95.60;;;;;;5017667;28;20116;-69
2023/02/14 10:39:40;;;;;;;28.92;16.15;;;9.60;95.40;;;;;;5021200;28;20084;-69
2023/02/14 10:42:16;;;;;;;28.20;17.60;;;9.50;95.30;;;;;;4979673;28;20037;-68
2023/02/14 10:44:46;;;;;;;27.15;17.08;;;9.50;95.30;;;;;;5027562;28;20105;-68
2023/02/14 10:47:34;;;;;;;30.70;17.75;;;9.50;95.30;;;;;;5031508;28;20102;-67
2023/02/14 10:50:26;;;;;;;26.92;15.82;;;9.60;95.30;;;;;;5014075;28;20563;-67
2023/02/14 10:53:21;;;;;;;29.20;16.63;;;9.60;95.20;;;;;;5030090;28;20033;-66
2023/02/14 10:56:04;;;;;;;25.13;15.70;;;9.60;95.40;;;;;;5017867;28;20480;-65
2023/02/14 10:58:33;;;;;;;22.88;15.40;;;9.60;95.30;;;;;;5024125;28;20030;-65
2023/02/14 11:01:04;;;;;;;26.42;16.98;;;9.70;95.30;;;;;;5018460;28;20037;-67
2023/02/14 11:03:32;;;;;;;23.70;16.10;;;9.70;95.30;;;;;;5025283;28;20530;-67
2023/02/14 11:05:58;;;;;;;24.13;16.00;;;9.80;95.30;;;;;;5010072;28;20424;-68
2023/02/14 11:08:32;;;;;;;25.35;15.75;;;9.80;95.20;;;;;;5012397;28;20026;-68
2023/02/14 11:11:13;;;;;;;27.38;16.50;;;9.90;95.20;;;;;;5021279;28;20037;-67
2023/02/14 11:13:39;;;;;;;24.58;16.50;;;9.90;95.10;;;;;;5011370;28;20033;-67
2023/02/14 11:16:08;;;;;;;24.75;16.23;;;9.90;95.10;;;;;;5037914;28;20029;-65
2023/02/14 11:18:35;;;;;;;23.08;15.27;;;9.90;95.10;;;;;;5027070;28;20033;-67
2023/02/14 11:21:32;;;;;;;25.98;15.48;;;10.00;95.20;;;;;;5022742;28;20056;-67
2023/02/14 11:23:58;;;;;;;24.60;15.85;;;10.00;94.90;;;;;;5024686;28;20521;-67
2023/02/14 11:26:28;;;;;;;28.50;17.48;;;10.00;95.00;;;;;;5004348;28;20116;-67
2023/02/14 11:29:09;;;;;;;24.58;16.05;;;10.00;94.90;;;;;;5019427;28;20033;-69
2023/02/14 11:31:36;;;;;;;24.67;16.63;;;10.10;94.90;;;;;;5020635;28;20042;-68
2023/02/14 11:34:14;;;;;;;26.80;16.98;;;10.10;95.00;;;;;;5012048;28;20069;-68
2023/02/14 11:36:41;;;;;;;25.05;16.52;;;10.20;95.00;;;;;;5024263;28;20025;-67
2023/02/14 11:39:36;;;;;;;27.40;15.48;;;10.20;94.90;;;;;;5013211;28;20044;-68
2023/02/14 11:42:04;;;;;;;23.10;15.90;;;10.20;94.90;;;;;;5016669;28;20018;-69
2023/02/14 11:44:32;;;;;;;25.80;16.58;;;10.30;94.90;;;;;;5011811;28;20034;-68
2023/02/14 11:47:23;;;;;;;28.08;16.98;;;10.30;94.80;;;;;;5018256;28;20021;-69
2023/02/14 11:50:00;;;;;;;26.20;17.17;;;10.30;94.60;;;;;;5021984;28;20516;-67
2023/02/14 11:52:28;;;;;;;27.02;16.65;;;10.30;94.60;;;;;;5002789;28;20057;-68
2023/02/14 11:54:55;;;;;;;25.60;15.85;;;10.30;94.60;;;;;;5014226;28;20018;-68
2023/02/14 11:57:33;;;;;;;27.02;16.10;;;10.30;94.60;;;;;;5030141;28;20052;-68
2023/02/14 12:00:02;;;;;;;24.08;16.00;;;10.30;94.60;;;;;;5026345;28;20037;-67
2023/02/14 12:02:43;;;;;;;23.23;15.70;;;10.40;94.60;;;;;;5030674;28;20095;-69
2023/02/14 12:05:30;;;;;;;23.23;15.77;;;10.40;94.50;;;;;;5011677;28;20034;-68
2023/02/14 12:07:58;;;;;;;22.48;15.77;;;10.40;94.40;;;;;;5013937;28;20029;-67
2023/02/14 12:10:28;;;;;;;27.92;17.45;;;10.40;94.30;;;;;;5011665;28;20096;-67
2023/02/14 12:12:57;;;;;;;23.02;15.85;;;10.30;94.30;;;;;;5019107;28;20021;-68
2023/02/14 12:15:39;;;;;;;22.95;14.85;;;10.40;94.30;;;;;;5020987;28;20034;-68
2023/02/14 12:18:36;;;;;;;21.02;13.93;;;10.40;94.30;;;;;;5018332;28;20088;-69
2023/02/14 12:21:39;;;;;;;26.65;15.40;;;10.40;94.30;;;;;;5007121;28;20374;-68
2023/02/14 12:24:24;;;;;;;25.48;16.38;;;10.50;94.20;;;;;;5016825;28;20065;-68
2023/02/14 12:27:13;;;;;;;23.67;15.00;;;10.40;94.10;;;;;;5031132;28;20140;-68
2023/02/14 12:29:54;;;;;;;23.65;16.10;;;10.40;94.20;;;;;;5012537;28;20037;-68
2023/02/14 12:32:24;;;;;;;21.83;14.65;;;10.40;94.20;;;;;;5005755;28;20033;-66
2023/02/14 12:34:52;;;;;;;26.67;15.60;;;10.40;94.20;;;;;;5020025;28;20030;-66
2023/02/14 12:37:23;;;;;;;23.05;15.13;;;10.50;94.20;;;;;;5030866;28;20029;-66
2023/02/14 12:39:52;;;;;;;24.42;15.40;;;10.50;94.30;;;;;;5026018;28;20415;-66
2023/02/14 12:42:39;;;;;;;23.25;16.15;;;10.50;94.40;;;;;;5026293;28;20129;-66
2023/02/14 12:45:36;;;;;;;24.88;15.27;;;10.60;94.20;;;;;;5010799;28;20033;-64
2023/02/14 12:48:24;;;;;;;23.45;14.65;;;10.60;94.10;;;;;;5015942;28;20033;-66
2023/02/14 12:50:54;;;;;;;20.65;14.30;;;10.60;94.00;;;;;;5015207;28;20038;-67
2023/02/14 12:53:23;;;;;;;25.35;16.52;;;10.60;94.00;;;;;;5026381;28;20034;-66
2023/02/14 12:55:56;;;;;;;23.42;15.57;;;10.60;94.00;;;;;;5009211;28;20563;-67
2023/02/14 12:58:48;;;;;;;23.25;15.20;;;10.50;94.00;;;;;;5025650;28;20022;-66
2023/02/14 13:01:16;;;;;;;24.75;15.65;;;10.60;94.00;;;;;;4999818;28;20042;-66
2023/02/14 13:04:07;;;;;;;24.00;14.68;;;10.60;93.90;;;;;;5015058;28;20034;-67
2023/02/14 13:06:36;;;;;;;21.77;15.02;;;10.60;93.90;;;;;;5015010;28;20038;-67
2023/02/14 13:09:20;;;;;;;21.55;14.60;;;10.60;93.90;;;;;;5014540;28;20036;-67
2023/02/14 13:12:01;;;;;;;21.00;15.00;;;10.60;93.90;;;;;;5015107;28;20038;-67
2023/02/14 13:14:48;;;;;;;24.33;14.55;;;10.60;93.90;;;;;;5021523;28;20042;-67